Time,TemperatureF,DewpointF,PressureIn,WindDirection,WindDirectionDegrees,WindSpeedMPH,WindSpeedGustMPH,Humidity,HourlyPrecipIn,Conditions,Clouds,dailyrainin,SoftwareType,DateUTC
2013-02-18 00:08:00,41.0,32.0,30.36,North,350,4.0,5.0,69,0.00,,,0.00,weatherlink.com 1.10,2013-02-18 05:08:00,
2013-02-18 00:23:00,40.8,32.0,30.36,North,355,4.0,5.0,71,0.00,,,0.00,weatherlink.com 1.10,2013-02-18 05:23:00,
2013-02-18 00:38:00,40.9,32.0,30.37,North,350,3.0,5.0,71,0.00,,,0.00,weatherlink.com 1.10,2013-02-18 05:38:00,
2013-02-18 01:08:00,40.2,31.0,30.37,NNW,348,3.0,6.0,69,0.00,,,0.00,weatherlink.com 1.10,2013-02-18 06:08:00,
2013-02-18 01:23:00,39.6,31.0,30.36,NNW,346,3.0,5.0,71,0.00,,,0.00,weatherlink.com 1.10,2013-02-18 06:23:00,
2013-02-18 01:38:00,39.6,31.0,30.36,NNW,338,4.0,5.0,71,0.00,,,0.00,weatherlink.com 1.10,2013-02-18 06:38:00,
2013-02-18 01:53:00,39.1,31.0,30.36,NNW,339,3.0,5.0,73,0.00,,,0.00,weatherlink.com 1.10,2013-02-18 06:53:00,
2013-02-18 02:08:00,39.1,31.0,30.36,NNW,340,4.0,5.0,72,0.00,,,0.00,weatherlink.com 1.10,2013-02-18 07:08:00,
2013-02-18 02:23:00,38.7,31.0,30.35,NNW,346,4.0,5.0,74,0.00,,,0.00,weatherlink.com 1.10,2013-02-18 07:23:00,
2013-02-18 02:38:00,38.0,31.0,30.34,NNW,347,5.0,6.0,77,0.00,,,0.00,weatherlink.com 1.10,2013-02-18 07:38:00,
2013-02-18 02:53:00,37.6,31.0,30.34,NNW,348,4.0,6.0,77,0.00,,,0.00,weatherlink.com 1.10,2013-02-18 07:53:00,
2013-02-18 03:08:00,37.6,31.0,30.34,NNW,343,4.0,6.0,77,0.00,,,0.00,weatherlink.com 1.10,2013-02-18 08:08:00,
2013-02-18 03:23:00,38.0,31.0,30.34,NNW,345,5.0,6.0,77,0.00,,,0.00,weatherlink.com 1.10,2013-02-18 08:23:00,
2013-02-18 03:38:00,38.1,32.0,30.34,NNW,342,4.0,5.0,78,0.00,,,0.00,weatherlink.com 1.10,2013-02-18 08:38:00,
2013-02-18 03:53:00,38.6,33.0,30.34,North,355,3.0,5.0,80,0.00,,,0.00,weatherlink.com 1.10,2013-02-18 08:53:00,
2013-02-18 04:08:00,38.6,33.0,30.34,North,351,4.0,5.0,80,0.00,,,0.00,weatherlink.com 1.10,2013-02-18 09:08:00,
2013-02-18 04:23:00,38.7,34.0,30.34,North,355,3.0,5.0,84,0.00,,,0.00,weatherlink.com 1.10,2013-02-18 09:23:00,
2013-02-18 04:38:00,38.5,34.0,30.34,North,355,4.0,5.0,84,0.00,,,0.00,weatherlink.com 1.10,2013-02-18 09:38:00,
2013-02-18 04:53:00,38.6,35.0,30.34,North,355,3.0,5.0,85,0.00,,,0.00,weatherlink.com 1.10,2013-02-18 09:53:00,
2013-02-18 05:08:00,38.5,34.0,30.34,North,355,3.0,5.0,85,0.00,,,0.00,weatherlink.com 1.10,2013-02-18 10:08:00,
2013-02-18 05:23:00,38.4,35.0,30.34,NNE,19,2.0,5.0,87,0.00,,,0.00,weatherlink.com 1.10,2013-02-18 10:23:00,
2013-02-18 05:38:00,38.4,35.0,30.35,NNE,15,3.0,5.0,87,0.00,,,0.00,weatherlink.com 1.10,2013-02-18 10:38:00,
2013-02-18 06:08:00,38.5,35.0,30.34,North,355,3.0,5.0,87,0.00,,,0.00,weatherlink.com 1.10,2013-02-18 11:08:00,
2013-02-18 06:23:00,39.1,36.0,30.34,North,355,4.0,5.0,87,0.00,,,0.00,weatherlink.com 1.10,2013-02-18 11:23:00,
2013-02-18 06:38:00,39.3,35.0,30.35,North,355,3.0,5.0,84,0.00,,,0.00,weatherlink.com 1.10,2013-02-18 11:38:00,
2013-02-18 06:53:00,39.7,36.0,30.35,North,355,4.0,5.0,85,0.00,,,0.00,weatherlink.com 1.10,2013-02-18 11:53:00,
2013-02-18 07:08:00,39.7,35.0,30.35,North,355,3.0,5.0,82,0.00,,,0.00,weatherlink.com 1.10,2013-02-18 12:08:00,
2013-02-18 07:23:00,40.3,36.0,30.36,North,360,5.0,6.0,84,0.00,,,0.00,weatherlink.com 1.10,2013-02-18 12:23:00,
2013-02-18 07:38:00,41.1,37.0,30.36,NNE,28,7.0,8.0,86,0.00,,,0.00,weatherlink.com 1.10,2013-02-18 12:38:00,
2013-02-18 07:53:00,41.6,37.0,30.36,NNE,27,6.0,7.0,85,0.00,,,0.00,weatherlink.com 1.10,2013-02-18 12:53:00,
2013-02-18 08:08:00,42.5,38.0,30.36,NE,53,5.0,8.0,83,0.00,,,0.00,weatherlink.com 1.10,2013-02-18 13:08:00,
2013-02-18 08:23:00,43.5,37.0,30.37,NNE,21,5.0,8.0,78,0.00,,,0.00,weatherlink.com 1.10,2013-02-18 13:23:00,
2013-02-18 08:39:00,45.0,38.0,30.37,NE,42,6.0,10.0,76,0.00,,,0.00,weatherlink.com 1.10,2013-02-18 13:39:00,
2013-02-18 08:54:00,47.0,37.0,30.37,ENE,68,7.0,10.0,68,0.00,,,0.00,weatherlink.com 1.10,2013-02-18 13:54:00,
2013-02-18 09:09:00,48.9,35.0,30.37,NE,41,8.0,12.0,60,0.00,,,0.00,weatherlink.com 1.10,2013-02-18 14:09:00,
2013-02-18 09:24:00,50.1,35.0,30.37,NNE,33,9.0,12.0,57,0.00,,,0.00,weatherlink.com 1.10,2013-02-18 14:24:00,
2013-02-18 09:39:00,51.4,36.0,30.37,ENE,68,12.0,14.0,55,0.00,,,0.00,weatherlink.com 1.10,2013-02-18 14:39:00,
2013-02-18 09:54:00,52.5,38.0,30.37,ENE,75,8.0,14.0,59,0.00,,,0.00,weatherlink.com 1.10,2013-02-18 14:54:00,
2013-02-18 10:09:00,53.9,40.0,30.37,East,80,13.0,18.0,60,0.00,,,0.00,weatherlink.com 1.10,2013-02-18 15:09:00,
2013-02-18 10:24:00,54.4,37.0,30.37,East,85,13.0,16.0,52,0.00,,,0.00,weatherlink.com 1.10,2013-02-18 15:24:00,
2013-02-18 10:39:00,55.7,42.0,30.37,ENE,67,11.0,16.0,60,0.00,,,0.00,weatherlink.com 1.10,2013-02-18 15:39:00,
2013-02-18 10:54:00,56.3,38.0,30.37,ENE,78,10.0,16.0,51,0.00,,,0.00,weatherlink.com 1.10,2013-02-18 15:54:00,
2013-02-18 11:09:00,57.4,42.0,30.37,East,96,8.0,17.0,56,0.00,,,0.00,weatherlink.com 1.10,2013-02-18 16:09:00,
2013-02-18 11:24:00,59.1,40.0,30.36,ESE,107,7.0,14.0,49,0.00,,,0.00,weatherlink.com 1.10,2013-02-18 16:24:00,
2013-02-18 11:39:00,59.0,43.0,30.36,ESE,109,10.0,14.0,55,0.00,,,0.00,weatherlink.com 1.10,2013-02-18 16:39:00,
2013-02-18 11:54:00,60.0,44.0,30.35,ESE,122,14.0,19.0,55,0.00,,,0.00,weatherlink.com 1.10,2013-02-18 16:54:00,
2013-02-18 12:09:00,61.9,44.0,30.34,SE,139,12.0,15.0,52,0.00,,,0.00,weatherlink.com 1.10,2013-02-18 17:09:00,
2013-02-18 12:24:00,62.1,46.0,30.33,ESE,104,7.0,15.0,55,0.00,,,0.00,weatherlink.com 1.10,2013-02-18 17:24:00,
2013-02-18 12:39:00,63.1,42.0,30.32,SSE,162,6.0,19.0,47,0.00,,,0.00,weatherlink.com 1.10,2013-02-18 17:39:00,
2013-02-18 12:54:00,63.8,46.0,30.31,SE,140,8.0,17.0,52,0.00,,,0.00,weatherlink.com 1.10,2013-02-18 17:54:00,
2013-02-18 13:09:00,63.9,44.0,30.30,SE,132,7.0,17.0,48,0.00,,,0.00,weatherlink.com 1.10,2013-02-18 18:09:00,
2013-02-18 13:25:00,64.7,46.0,30.29,SE,146,9.0,15.0,52,0.00,,,0.00,weatherlink.com 1.10,2013-02-18 18:25:00,
2013-02-18 13:40:00,64.6,44.0,30.29,SE,134,6.0,18.0,48,0.00,,,0.00,weatherlink.com 1.10,2013-02-18 18:40:00,
2013-02-18 13:55:00,65.0,46.0,30.27,SSW,208,14.0,17.0,50,0.00,,,0.00,weatherlink.com 1.10,2013-02-18 18:55:00,
2013-02-18 14:10:00,64.3,46.0,30.28,ESE,104,8.0,19.0,51,0.00,,,0.00,weatherlink.com 1.10,2013-02-18 19:10:00,
2013-02-18 14:25:00,65.7,46.0,30.27,East,101,8.0,14.0,50,0.00,,,0.00,weatherlink.com 1.10,2013-02-18 19:25:00,
2013-02-18 14:40:00,65.8,45.0,30.26,SE,125,11.0,17.0,48,0.00,,,0.00,weatherlink.com 1.10,2013-02-18 19:40:00,
2013-02-18 14:55:00,65.3,45.0,30.26,SE,142,5.0,15.0,49,0.00,,,0.00,weatherlink.com 1.10,2013-02-18 19:55:00,
2013-02-18 15:10:00,67.0,45.0,30.25,SE,138,6.0,17.0,46,0.00,,,0.00,weatherlink.com 1.10,2013-02-18 20:10:00,
2013-02-18 15:25:00,67.4,45.0,30.25,SSW,197,7.0,16.0,45,0.00,,,0.00,weatherlink.com 1.10,2013-02-18 20:25:00,
2013-02-18 15:40:00,67.6,47.0,30.25,SSW,198,8.0,16.0,47,0.00,,,0.00,weatherlink.com 1.10,2013-02-18 20:40:00,
2013-02-18 15:55:00,66.7,46.0,30.25,South,169,8.0,14.0,47,0.00,,,0.00,weatherlink.com 1.10,2013-02-18 20:55:00,
2013-02-18 16:10:00,66.1,45.0,30.25,SE,142,6.0,12.0,47,0.00,,,0.00,weatherlink.com 1.10,2013-02-18 21:10:00,
2013-02-18 16:25:00,66.5,47.0,30.25,SE,128,6.0,12.0,50,0.00,,,0.00,weatherlink.com 1.10,2013-02-18 21:25:00,
2013-02-18 16:40:00,67.5,46.0,30.24,SSE,153,9.0,10.0,47,0.00,,,0.00,weatherlink.com 1.10,2013-02-18 21:40:00,
2013-02-18 16:55:00,67.2,47.0,30.25,SE,138,6.0,14.0,48,0.00,,,0.00,weatherlink.com 1.10,2013-02-18 21:55:00,
2013-02-18 17:10:00,66.9,48.0,30.25,SE,137,5.0,11.0,50,0.00,,,0.00,weatherlink.com 1.10,2013-02-18 22:10:00,
2013-02-18 17:25:00,65.6,47.0,30.25,ESE,115,8.0,11.0,52,0.00,,,0.00,weatherlink.com 1.10,2013-02-18 22:25:00,
2013-02-18 17:40:00,65.6,51.0,30.25,ESE,103,3.0,13.0,59,0.00,,,0.00,weatherlink.com 1.10,2013-02-18 22:40:00,
2013-02-18 17:55:00,64.5,48.0,30.25,ESE,110,4.0,13.0,55,0.00,,,0.00,weatherlink.com 1.10,2013-02-18 22:55:00,
2013-02-18 18:10:00,63.9,50.0,30.25,ESE,123,7.0,15.0,61,0.00,,,0.00,weatherlink.com 1.10,2013-02-18 23:10:00,
2013-02-18 18:25:00,62.7,48.0,30.25,East,96,5.0,13.0,59,0.00,,,0.00,weatherlink.com 1.10,2013-02-18 23:25:00,
2013-02-18 18:40:00,62.2,48.0,30.25,ESE,118,3.0,9.0,60,0.00,,,0.00,weatherlink.com 1.10,2013-02-18 23:40:00,
2013-02-18 18:55:00,61.4,48.0,30.26,ESE,114,5.0,9.0,61,0.00,,,0.00,weatherlink.com 1.10,2013-02-18 23:55:00,
2013-02-18 19:10:00,61.1,48.0,30.26,ESE,119,7.0,10.0,63,0.00,,,0.00,weatherlink.com 1.10,2013-02-19 00:10:00,
2013-02-18 19:25:00,60.8,48.0,30.25,ESE,106,7.0,10.0,64,0.00,,,0.00,weatherlink.com 1.10,2013-02-19 00:25:00,
2013-02-18 19:40:00,60.2,49.0,30.25,SE,131,7.0,13.0,66,0.00,,,0.00,weatherlink.com 1.10,2013-02-19 00:40:00,
2013-02-18 19:55:00,59.5,49.0,30.25,SE,133,7.0,8.0,69,0.00,,,0.00,weatherlink.com 1.10,2013-02-19 00:55:00,
2013-02-18 20:10:00,59.2,49.0,30.25,SE,136,3.0,11.0,70,0.00,,,0.00,weatherlink.com 1.10,2013-02-19 01:10:00,
2013-02-18 20:25:00,58.7,50.0,30.26,SE,136,6.0,11.0,72,0.00,,,0.00,weatherlink.com 1.10,2013-02-19 01:25:00,
2013-02-18 20:40:00,58.2,50.0,30.26,ESE,119,5.0,8.0,74,0.00,,,0.00,weatherlink.com 1.10,2013-02-19 01:40:00,
2013-02-18 20:55:00,57.7,49.0,30.26,SE,124,2.0,6.0,74,0.00,,,0.00,weatherlink.com 1.10,2013-02-19 01:55:00,
2013-02-18 21:10:00,57.5,49.0,30.26,ESE,121,3.0,5.0,74,0.00,,,0.00,weatherlink.com 1.10,2013-02-19 02:10:00,
2013-02-18 21:25:00,56.9,49.0,30.26,SE,134,0.0,4.0,76,0.00,,,0.00,weatherlink.com 1.10,2013-02-19 02:25:00,
2013-02-18 21:40:00,56.4,49.0,30.26,SE,134,2.0,4.0,77,0.00,,,0.00,weatherlink.com 1.10,2013-02-19 02:40:00,
2013-02-18 21:55:00,56.1,50.0,30.26,SE,131,1.0,4.0,79,0.00,,,0.00,weatherlink.com 1.10,2013-02-19 02:55:00,
2013-02-18 22:10:00,55.6,50.0,30.25,SE,131,1.0,2.0,80,0.00,,,0.00,weatherlink.com 1.10,2013-02-19 03:10:00,
2013-02-18 22:25:00,55.1,49.0,30.25,SE,134,1.0,3.0,81,0.00,,,0.00,weatherlink.com 1.10,2013-02-19 03:25:00,
2013-02-18 22:40:00,54.5,49.0,30.25,SE,146,3.0,5.0,83,0.00,,,0.00,weatherlink.com 1.10,2013-02-19 03:40:00,
2013-02-18 22:55:00,54.1,49.0,30.25,SSE,165,3.0,4.0,84,0.00,,,0.00,weatherlink.com 1.10,2013-02-19 03:55:00,
2013-02-18 23:10:00,53.9,49.0,30.24,SSE,163,1.0,3.0,84,0.00,,,0.00,weatherlink.com 1.10,2013-02-19 04:10:00,
2013-02-18 23:25:00,54.0,50.0,30.23,SSE,153,3.0,5.0,85,0.00,,,0.00,weatherlink.com 1.10,2013-02-19 04:25:00,
2013-02-18 23:40:00,53.7,49.0,30.22,SE,146,3.0,5.0,85,0.00,,,0.00,weatherlink.com 1.10,2013-02-19 04:40:00,
2013-02-18 23:55:00,53.1,49.0,30.22,SE,146,0.0,2.0,86,0.00,,,0.00,weatherlink.com 1.10,2013-02-19 04:55:00,